UPSVAC Airport Information Service

Columbia Metropolitan Airport

ICAO: KCAE Country: United States
Latitude: 33.9388 Longitude: -81.1195
Latest Arrival : UPS142 (KMCO-KCAE) Latest Departure : UPSJUMP (KCAE-KSDF)


WX CaptureLIVE
Data provided by noaa.gov | Fetched at 22:27:00

METAR : KCAE 272156Z 22009KT 10SM FEW060 BKN250 26/12 A3015 RMK AO2 SLP206 T02610122

TAF : KCAE 272058Z 2721/2818 21009KT P6SM SCT200 FM281000 19004KT 5SM BR SCT004 OVC008 FM281300 20007KT P6SM BKN008 BKN035 FM281600 21009KT P6SM SCT015 BKN035


Runway Data for KCAE
Data provided by openaviationdata.com

Runway ID Mag Var Hdg Length Elevation Surface ILS Freq ILS Id ILS Slope
5 -5 49° 8003 ft 236 ft Asphalt 108.95 IGJC 3
11 -5 109° 8592 ft 236 ft Asphalt 110.3 ICAE 3
23 -5 229° 8003 ft 236 ft Asphalt -- -- --
29 -5 289° 8592 ft 236 ft Asphalt 108.3 IVYK 3

Columbia Metropolitan Airport, United States
Use only for reference purposes



Not for navigational purposes.